Time;durP1;ratioP1;P1;durP2;ratioP2;P2;SDS_P1;SDS_P2;PMS_P1;PMS_P2;Temp;Humidity;BMP_temperature;BMP_pressure;BME280_temperature;BME280_humidity;BME280_pressure;Samples;Min_cycle;Max_cycle;Signal;HPM_P1;HPM_P2
2023/10/13 00:01:43;;;;;;;7.72;2.25;;;;;;;;;;10359443;28;20054;-73
2023/10/13 00:06:47;;;;;;;7.07;2.17;;;;;;;;;;10360394;28;20042;-73
2023/10/13 00:11:52;;;;;;;7.80;2.13;;;;;;;;;;10358466;28;20395;-73
2023/10/13 00:17:04;;;;;;;5.32;2.17;;;;;;;;;;10358150;28;20048;-73
2023/10/13 00:22:12;;;;;;;10.35;3.70;;;;;;;;;;10353969;28;20042;-74
2023/10/13 00:27:29;;;;;;;4.15;1.85;;;;;;;;;;10354312;28;20022;-73
2023/10/13 00:32:37;;;;;;;5.88;2.50;;;;;;;;;;10352027;28;20219;-73
2023/10/13 00:37:44;;;;;;;8.27;2.08;;;;;;;;;;10355782;28;20041;-72
2023/10/13 00:42:50;;;;;;;7.13;2.13;;;;;;;;;;10353130;28;20070;-74
2023/10/13 00:47:58;;;;;;;5.97;2.08;;;;;;;;;;10360415;28;20040;-74
2023/10/13 00:53:02;;;;;;;4.93;2.03;;;;;;;;;;10356902;28;20056;-74
2023/10/13 00:58:07;;;;;;;6.05;2.03;;;;;;;;;;10353525;28;20049;-74
2023/10/13 01:03:12;;;;;;;6.28;2.00;;;;;;;;;;10346374;28;20034;-73
2023/10/13 01:08:16;;;;;;;4.70;2.13;;;;;;;;;;10353829;28;20125;-73
2023/10/13 01:13:20;;;;;;;7.47;2.50;;;;;;;;;;10348365;28;20085;-75
2023/10/13 01:18:23;;;;;;;5.80;2.33;;;;;;;;;;10352876;28;20040;-73
2023/10/13 01:23:37;;;;;;;7.78;2.40;;;;;;;;;;10351131;28;20081;-73
2023/10/13 01:28:46;;;;;;;7.32;2.13;;;;;;;;;;10362854;28;20484;-72
2023/10/13 01:33:51;;;;;;;4.03;2.08;;;;;;;;;;10355718;28;20050;-74
2023/10/13 01:38:56;;;;;;;9.65;2.38;;;;;;;;;;10360478;28;20117;-74
2023/10/13 01:43:59;;;;;;;5.63;2.20;;;;;;;;;;10346655;28;20058;-73
2023/10/13 01:49:02;;;;;;;7.32;2.20;;;;;;;;;;10360407;28;20138;-73
2023/10/13 01:54:11;;;;;;;11.32;2.13;;;;;;;;;;10356993;28;20225;-73
2023/10/13 01:59:15;;;;;;;4.97;1.92;;;;;;;;;;10359624;28;20719;-72
2023/10/13 02:04:21;;;;;;;5.43;1.77;;;;;;;;;;10358896;28;20080;-73
2023/10/13 02:09:26;;;;;;;6.68;1.95;;;;;;;;;;10355701;28;20502;-74
2023/10/13 02:14:29;;;;;;;5.38;1.90;;;;;;;;;;10349276;28;20041;-74
2023/10/13 02:19:31;;;;;;;8.50;2.60;;;;;;;;;;10359036;28;20108;-71
2023/10/13 02:24:39;;;;;;;7.10;2.17;;;;;;;;;;10358711;28;20072;-73
2023/10/13 02:29:45;;;;;;;7.90;2.20;;;;;;;;;;10362173;28;20056;-74
2023/10/13 02:34:48;;;;;;;7.55;2.42;;;;;;;;;;10354637;28;20490;-73
2023/10/13 02:39:52;;;;;;;7.47;2.57;;;;;;;;;;10361772;28;20443;-73
2023/10/13 02:44:57;;;;;;;8.55;2.05;;;;;;;;;;10362063;28;20411;-73
2023/10/13 02:50:11;;;;;;;6.60;2.35;;;;;;;;;;10359023;28;20042;-72
2023/10/13 02:55:16;;;;;;;;;;;;;;;;;;10358022;28;20038;-71
2023/10/13 03:00:22;;;;;;;8.02;2.22;;;;;;;;;;10354268;28;19921;-73
2023/10/13 03:05:29;;;;;;;7.28;2.50;;;;;;;;;;10359739;28;20057;-74
2023/10/13 03:10:32;;;;;;;7.78;2.40;;;;;;;;;;10360326;28;20038;-77
2023/10/13 03:15:36;;;;;;;6.35;2.67;;;;;;;;;;10361668;28;20078;-74
2023/10/13 03:20:42;;;;;;;7.13;2.50;;;;;;;;;;10360376;28;20042;-73
2023/10/13 03:25:49;;;;;;;5.53;2.28;;;;;;;;;;10357722;28;20481;-73
2023/10/13 03:30:53;;;;;;;6.85;2.38;;;;;;;;;;10362212;28;20042;-74
2023/10/13 03:36:05;;;;;;;5.90;2.40;;;;;;;;;;10356007;28;20049;-72
2023/10/13 03:41:11;;;;;;;5.28;2.40;;;;;;;;;;10359605;28;20034;-72
2023/10/13 03:46:21;;;;;;;7.28;2.63;;;;;;;;;;10353437;28;20061;-72
2023/10/13 03:51:30;;;;;;;4.95;2.63;;;;;;;;;;10357404;28;20064;-75
2023/10/13 03:56:39;;;;;;;6.80;2.40;;;;;;;;;;10360027;28;20492;-73
2023/10/13 04:01:46;;;;;;;6.57;2.45;;;;;;;;;;10360956;28;20772;-73
2023/10/13 04:06:58;;;;;;;7.30;2.45;;;;;;;;;;10353869;28;20304;-72
2023/10/13 04:17:24;;;;;;;7.03;2.25;;;;;;;;;;10357824;28;20120;-73
2023/10/13 04:23:22;;;;;;;8.85;2.88;;;;;;;;;;10353914;28;20038;-73
2023/10/13 04:28:15;;;;;;;10.23;2.67;;;;;;;;;;10355273;28;20033;-74
2023/10/13 04:38:55;;;;;;;6.63;2.50;;;;;;;;;;10353107;28;20073;-73
2023/10/13 04:44:04;;;;;;;4.60;2.33;;;;;;;;;;10356171;28;20111;-74
2023/10/13 04:49:26;;;;;;;8.35;2.40;;;;;;;;;;10355291;28;20112;-73
2023/10/13 05:00:54;;;;;;;13.63;2.80;;;;;;;;;;10353272;28;20041;-74
2023/10/13 05:48:52;;;;;;;9.70;2.38;;;;;;;;;;10353738;28;20414;-72
2023/10/13 06:31:30;;;;;;;5.18;2.25;;;;;;;;;;10361452;28;20104;-73
2023/10/13 06:36:34;;;;;;;6.53;2.13;;;;;;;;;;10359906;28;20483;-69
2023/10/13 06:41:40;;;;;;;11.25;2.28;;;;;;;;;;10360857;28;20491;-71
2023/10/13 06:46:43;;;;;;;7.28;2.25;;;;;;;;;;10360752;28;20046;-73
2023/10/13 06:51:47;;;;;;;11.75;2.22;;;;;;;;;;10357764;28;20134;-73
2023/10/13 06:56:52;;;;;;;4.93;1.63;;;;;;;;;;10360018;28;20568;-71
2023/10/13 07:02:01;;;;;;;5.68;2.17;;;;;;;;;;10357452;28;20601;-71
2023/10/13 07:07:22;;;;;;;7.20;2.28;;;;;;;;;;10359463;28;20165;-72
2023/10/13 07:12:33;;;;;;;13.70;3.00;;;;;;;;;;10361431;28;20120;-70
2023/10/13 07:17:39;;;;;;;13.13;2.78;;;;;;;;;;10363025;28;20046;-70
2023/10/13 07:22:53;;;;;;;8.10;2.33;;;;;;;;;;10362229;28;20108;-72
2023/10/13 07:27:59;;;;;;;13.52;2.83;;;;;;;;;;10350730;28;20220;-71
2023/10/13 07:33:05;;;;;;;11.15;2.45;;;;;;;;;;10360460;28;20507;-71
2023/10/13 07:38:08;;;;;;;9.25;2.90;;;;;;;;;;10357635;28;20073;-71
2023/10/13 07:43:13;;;;;;;9.23;2.80;;;;;;;;;;10353273;28;20038;-73
2023/10/13 07:48:20;;;;;;;6.93;1.95;;;;;;;;;;10360584;28;20073;-74
2023/10/13 07:53:23;;;;;;;5.88;2.30;;;;;;;;;;10358893;28;20372;-73
2023/10/13 07:58:27;;;;;;;10.13;2.78;;;;;;;;;;10350780;28;20244;-71
2023/10/13 08:03:35;;;;;;;9.00;2.70;;;;;;;;;;10363840;28;20053;-73
2023/10/13 08:08:43;;;;;;;9.73;3.38;;;;;;;;;;10352823;28;20119;-71
2023/10/13 08:13:47;;;;;;;5.30;2.63;;;;;;;;;;10356438;28;20514;-72
2023/10/13 08:19:10;;;;;;;10.05;3.17;;;;;;;;;;10359120;28;20046;-74
2023/10/13 08:24:15;;;;;;;8.50;2.63;;;;;;;;;;10355522;28;20136;-73
2023/10/13 08:34:59;;;;;;;5.55;2.00;;;;;;;;;;10355687;28;20464;-71
2023/10/13 08:50:52;;;;;;;3.92;1.90;;;;;;;;;;10356480;28;20518;-71
2023/10/13 08:56:05;;;;;;;5.93;2.35;;;;;;;;;;10354594;28;20072;-71
2023/10/13 09:01:12;;;;;;;9.63;3.13;;;;;;;;;;10355334;28;20116;-71
2023/10/13 09:06:19;;;;;;;6.10;2.70;;;;;;;;;;10358904;28;20045;-70
2023/10/13 09:11:26;;;;;;;7.72;2.60;;;;;;;;;;10351454;28;20053;-70
2023/10/13 09:21:54;;;;;;;4.18;1.65;;;;;;;;;;10352209;28;20660;-70
2023/10/13 09:27:01;;;;;;;5.63;2.60;;;;;;;;;;10352474;28;20403;-71
2023/10/13 09:32:11;;;;;;;9.52;3.10;;;;;;;;;;10354800;28;20042;-72
2023/10/13 09:37:20;;;;;;;7.97;2.58;;;;;;;;;;10353241;28;20069;-71
2023/10/13 09:42:26;;;;;;;5.90;2.53;;;;;;;;;;10352694;28;20053;-71
2023/10/13 09:47:36;;;;;;;9.18;2.95;;;;;;;;;;10356879;28;20038;-72
2023/10/13 09:52:42;;;;;;;10.52;2.63;;;;;;;;;;10354626;28;20045;-71
2023/10/13 09:57:48;;;;;;;12.45;3.10;;;;;;;;;;10352295;28;20664;-71
2023/10/13 10:02:57;;;;;;;7.72;2.38;;;;;;;;;;10357562;28;20359;-72
2023/10/13 10:08:01;;;;;;;8.73;2.75;;;;;;;;;;10356425;28;20043;-71
2023/10/13 10:13:12;;;;;;;3.00;2.13;;;;;;;;;;10355402;28;20534;-73
2023/10/13 10:18:25;;;;;;;6.30;3.10;;;;;;;;;;10353640;28;20069;-72
2023/10/13 10:23:35;;;;;;;6.35;2.85;;;;;;;;;;10352138;28;20073;-72
2023/10/13 10:28:41;;;;;;;9.20;3.00;;;;;;;;;;10354818;28;20465;-72
2023/10/13 10:33:50;;;;;;;8.30;3.28;;;;;;;;;;10355656;28;20166;-73
2023/10/13 10:38:55;;;;;;;12.68;3.38;;;;;;;;;;10361136;28;20046;-72
2023/10/13 10:44:02;;;;;;;8.07;3.40;;;;;;;;;;10362569;28;20046;-72
2023/10/13 10:49:08;;;;;;;12.32;3.08;;;;;;;;;;10368686;28;20072;-72
2023/10/13 10:54:19;;;;;;;7.35;2.78;;;;;;;;;;10361649;28;20046;-71
2023/10/13 10:59:25;;;;;;;7.95;2.60;;;;;;;;;;10363115;28;20426;-72
2023/10/13 11:04:33;;;;;;;5.43;2.30;;;;;;;;;;10360796;28;20509;-72
2023/10/13 11:09:45;;;;;;;4.53;2.63;;;;;;;;;;10359185;28;20050;-72
2023/10/13 11:14:50;;;;;;;6.25;2.83;;;;;;;;;;10363536;28;20096;-72
2023/10/13 11:19:54;;;;;;;8.10;2.80;;;;;;;;;;10365879;28;20108;-72
2023/10/13 11:24:59;;;;;;;7.07;3.00;;;;;;;;;;10356635;28;20029;-72
2023/10/13 11:30:05;;;;;;;8.52;3.03;;;;;;;;;;10358881;28;20038;-73
2023/10/13 11:35:20;;;;;;;7.93;3.15;;;;;;;;;;10353522;28;20042;-72
2023/10/13 11:40:43;;;;;;;5.97;2.78;;;;;;;;;;10329344;28;20163;-71
2023/10/13 11:45:55;;;;;;;8.27;2.85;;;;;;;;;;10337505;28;20046;-72
2023/10/13 11:51:00;;;;;;;5.55;2.40;;;;;;;;;;10354879;28;20045;-73
2023/10/13 11:56:08;;;;;;;7.68;2.80;;;;;;;;;;10354502;28;20511;-72
2023/10/13 12:04:30;;;;;;;8.95;3.13;;;;;;;;;;10360287;28;20151;-71
2023/10/13 12:06:59;;;;;;;5.25;2.42;;;;;;;;;;10353623;28;20420;-71
2023/10/13 12:12:04;;;;;;;9.10;2.70;;;;;;;;;;10346543;28;20052;-72
2023/10/13 12:17:10;;;;;;;10.40;2.58;;;;;;;;;;10356154;28;20046;-73
2023/10/13 12:22:25;;;;;;;7.30;2.88;;;;;;;;;;10356533;28;20037;-71
2023/10/13 12:27:35;;;;;;;9.43;3.15;;;;;;;;;;10355077;28;20053;-71
2023/10/13 12:32:44;;;;;;;8.35;2.67;;;;;;;;;;10353664;28;20126;-71
2023/10/13 12:37:51;;;;;;;8.38;2.65;;;;;;;;;;10357917;28;20054;-70
2023/10/13 12:53:36;;;;;;;8.43;2.80;;;;;;;;;;10347983;28;20046;-71
2023/10/13 12:58:40;;;;;;;6.93;1.95;;;;;;;;;;10354491;28;20145;-71
2023/10/13 13:03:45;;;;;;;11.32;2.25;;;;;;;;;;10346137;28;20038;-70
2023/10/13 13:08:49;;;;;;;10.50;2.83;;;;;;;;;;10353137;28;20045;-71
2023/10/13 13:13:52;;;;;;;6.93;2.40;;;;;;;;;;10357692;28;20046;-71
2023/10/13 13:18:55;;;;;;;9.75;2.92;;;;;;;;;;10359130;28;20057;-70
2023/10/13 13:24:01;;;;;;;7.00;2.47;;;;;;;;;;10350670;28;20321;-70
2023/10/13 13:29:04;;;;;;;10.52;2.45;;;;;;;;;;10354458;28;20128;-71
2023/10/13 13:34:10;;;;;;;8.85;2.65;;;;;;;;;;10353325;28;20045;-71
2023/10/13 13:39:17;;;;;;;6.93;2.53;;;;;;;;;;10359878;28;20128;-69
2023/10/13 13:44:28;;;;;;;10.57;2.58;;;;;;;;;;10356472;28;20177;-70
2023/10/13 13:49:39;;;;;;;9.07;2.60;;;;;;;;;;10352659;28;20208;-71
2023/10/13 13:54:43;;;;;;;;;;;;;;;;;;10357733;28;20041;-71
2023/10/13 13:59:47;;;;;;;6.93;2.65;;;;;;;;;;10359043;28;19925;-70
2023/10/13 14:04:52;;;;;;;6.93;2.20;;;;;;;;;;10355845;28;20034;-71
2023/10/13 14:10:05;;;;;;;7.40;2.78;;;;;;;;;;10355541;28;20116;-71
2023/10/13 14:15:23;;;;;;;9.18;2.47;;;;;;;;;;10363772;28;20545;-70
2023/10/13 14:20:27;;;;;;;8.77;2.60;;;;;;;;;;10357651;28;20426;-71
2023/10/13 14:25:37;;;;;;;5.88;2.10;;;;;;;;;;10364149;28;20042;-71
2023/10/13 14:30:41;;;;;;;5.50;2.10;;;;;;;;;;10359454;28;20045;-70
2023/10/13 14:35:47;;;;;;;9.23;2.00;;;;;;;;;;10359204;28;20109;-71
2023/10/13 14:40:56;;;;;;;7.25;2.10;;;;;;;;;;10360944;28;20129;-71
2023/10/13 14:46:04;;;;;;;7.22;2.10;;;;;;;;;;10364652;28;20132;-71
2023/10/13 14:51:12;;;;;;;8.13;2.35;;;;;;;;;;10362705;28;20042;-71
2023/10/13 14:56:17;;;;;;;9.95;2.28;;;;;;;;;;10360957;28;20132;-73
2023/10/13 15:01:21;;;;;;;8.10;2.33;;;;;;;;;;10356427;28;20143;-72
2023/10/13 15:06:28;;;;;;;11.95;2.13;;;;;;;;;;10365128;28;20045;-71
2023/10/13 15:11:36;;;;;;;7.80;2.17;;;;;;;;;;10357672;28;20137;-73
2023/10/13 15:16:53;;;;;;;12.60;2.45;;;;;;;;;;10360283;28;20050;-74
2023/10/13 15:21:56;;;;;;;8.52;2.33;;;;;;;;;;10355381;28;20116;-71
2023/10/13 15:27:02;;;;;;;11.23;2.70;;;;;;;;;;10356045;28;20413;-72
2023/10/13 15:37:26;;;;;;;9.38;2.15;;;;;;;;;;10364822;28;20064;-71
2023/10/13 15:42:29;;;;;;;7.25;1.92;;;;;;;;;;10360617;28;20045;-72
2023/10/13 15:47:35;;;;;;;9.45;2.28;;;;;;;;;;10360538;28;20056;-72
2023/10/13 15:52:45;;;;;;;7.78;2.40;;;;;;;;;;10347356;28;20450;-72
2023/10/13 15:57:52;;;;;;;8.85;2.50;;;;;;;;;;10355975;28;20531;-70
2023/10/13 16:02:57;;;;;;;8.10;2.50;;;;;;;;;;10364870;28;20054;-72
2023/10/13 16:08:03;;;;;;;8.18;2.50;;;;;;;;;;10357297;28;20049;-74
2023/10/13 16:13:09;;;;;;;13.18;2.50;;;;;;;;;;10352516;28;20096;-71
2023/10/13 16:18:13;;;;;;;10.18;2.45;;;;;;;;;;10359840;28;20140;-71
2023/10/13 16:23:16;;;;;;;11.98;3.10;;;;;;;;;;10361648;28;20056;-71
2023/10/13 16:28:22;;;;;;;10.63;2.63;;;;;;;;;;10359568;28;20049;-71
2023/10/13 16:33:28;;;;;;;7.13;2.40;;;;;;;;;;10359663;28;20053;-73
2023/10/13 16:38:31;;;;;;;12.77;4.20;;;;;;;;;;10358954;28;20057;-70
2023/10/13 16:43:35;;;;;;;;;;;;;;;;;;10359704;28;20351;-70
2023/10/13 16:48:39;;;;;;;12.90;3.50;;;;;;;;;;10356272;28;19970;-74
2023/10/13 16:53:46;;;;;;;13.50;3.42;;;;;;;;;;10361314;28;20099;-74
2023/10/13 16:58:49;;;;;;;8.00;2.80;;;;;;;;;;10356752;28;20472;-74
2023/10/13 17:03:53;;;;;;;7.35;3.10;;;;;;;;;;10358403;28;20130;-72
2023/10/13 17:08:56;;;;;;;13.23;4.03;;;;;;;;;;10354044;28;20045;-71
2023/10/13 17:13:58;;;;;;;10.40;4.68;;;;;;;;;;10355711;28;20045;-72
2023/10/13 17:19:03;;;;;;;12.02;4.00;;;;;;;;;;10355834;28;20050;-70
2023/10/13 17:24:06;;;;;;;12.30;4.03;;;;;;;;;;10359207;28;20041;-70
2023/10/13 17:29:09;;;;;;;;;;;;;;;;;;10357533;28;20164;-72
2023/10/13 17:34:16;;;;;;;10.65;4.30;;;;;;;;;;10354119;28;20024;-74
2023/10/13 17:39:19;;;;;;;14.40;4.07;;;;;;;;;;10355644;28;20075;-70
2023/10/13 17:44:23;;;;;;;16.55;5.70;;;;;;;;;;10355100;28;20491;-71
2023/10/13 17:49:27;;;;;;;45.83;21.52;;;;;;;;;;10353172;28;20432;-70
2023/10/13 17:54:30;;;;;;;63.97;29.75;;;;;;;;;;10359251;28;20046;-71
2023/10/13 17:59:33;;;;;;;31.20;13.40;;;;;;;;;;10356932;28;20488;-69
2023/10/13 18:04:37;;;;;;;20.00;6.85;;;;;;;;;;10358854;28;20525;-70
2023/10/13 18:09:40;;;;;;;27.17;8.73;;;;;;;;;;10355777;28;20466;-71
2023/10/13 18:14:43;;;;;;;31.25;10.95;;;;;;;;;;10355353;28;20343;-71
2023/10/13 18:19:49;;;;;;;30.85;14.70;;;;;;;;;;10359011;28;20061;-73
2023/10/13 18:24:52;;;;;;;17.98;7.95;;;;;;;;;;10356916;28;20136;-71
2023/10/13 18:29:55;;;;;;;37.92;16.30;;;;;;;;;;10352721;28;20046;-73
2023/10/13 18:34:59;;;;;;;;;;;;;;;;;;10354197;28;20498;-72
2023/10/13 18:40:06;;;;;;;20.75;9.85;;;;;;;;;;10355346;28;19928;-73
2023/10/13 18:45:10;;;;;;;23.67;9.05;;;;;;;;;;10354669;28;20132;-74
2023/10/13 18:50:15;;;;;;;17.52;7.13;;;;;;;;;;10352302;28;20039;-71
2023/10/13 18:55:19;;;;;;;17.60;7.88;;;;;;;;;;10357913;28;20046;-75
2023/10/13 19:00:23;;;;;;;16.83;6.45;;;;;;;;;;10361570;28;20050;-71
2023/10/13 19:05:26;;;;;;;14.73;5.90;;;;;;;;;;10357249;28;20057;-71
2023/10/13 19:10:30;;;;;;;13.57;6.07;;;;;;;;;;10358560;28;20204;-71
2023/10/13 19:15:36;;;;;;;17.05;6.95;;;;;;;;;;10356707;28;20046;-72
2023/10/13 19:20:40;;;;;;;13.25;6.60;;;;;;;;;;10365494;28;20101;-72
2023/10/13 19:25:45;;;;;;;9.93;4.68;;;;;;;;;;10358434;28;20341;-72
2023/10/13 19:30:48;;;;;;;12.82;6.25;;;;;;;;;;10365234;28;20351;-72
2023/10/13 19:35:51;;;;;;;19.92;5.95;;;;;;;;;;10357619;28;20042;-73
2023/10/13 19:40:55;;;;;;;8.37;2.90;;;;;;;;;;10357041;28;20030;-73
2023/10/13 19:45:59;;;;;;;11.60;4.00;;;;;;;;;;10359609;28;20304;-72
2023/10/13 19:51:01;;;;;;;8.57;3.75;;;;;;;;;;10363398;28;20054;-71
2023/10/13 19:56:10;;;;;;;12.70;3.37;;;;;;;;;;10353404;28;20053;-72
2023/10/13 20:01:15;;;;;;;7.45;3.50;;;;;;;;;;10359689;28;20101;-73
2023/10/13 20:06:21;;;;;;;8.32;3.42;;;;;;;;;;10362666;28;20038;-73
2023/10/13 20:11:27;;;;;;;9.88;4.32;;;;;;;;;;10356527;28;20049;-73
2023/10/13 20:16:30;;;;;;;9.82;4.25;;;;;;;;;;10356682;28;20038;-74
2023/10/13 20:21:39;;;;;;;12.90;3.63;;;;;;;;;;10359190;28;20156;-74
2023/10/13 20:26:45;;;;;;;8.52;3.92;;;;;;;;;;10360025;28;20045;-71
2023/10/13 20:31:49;;;;;;;10.13;4.88;;;;;;;;;;10355469;28;20129;-71
2023/10/13 20:36:54;;;;;;;11.27;4.65;;;;;;;;;;10358876;28;20045;-72
2023/10/13 20:42:04;;;;;;;8.75;4.10;;;;;;;;;;10355045;28;20038;-72
2023/10/13 20:47:10;;;;;;;12.07;3.88;;;;;;;;;;10357411;28;20042;-72
2023/10/13 20:52:15;;;;;;;9.32;3.55;;;;;;;;;;10354678;28;20046;-72
2023/10/13 20:57:20;;;;;;;5.30;2.08;;;;;;;;;;10362674;28;20045;-74
2023/10/13 21:02:23;;;;;;;11.15;3.70;;;;;;;;;;10360420;28;20486;-70
2023/10/13 21:07:26;;;;;;;5.17;2.10;;;;;;;;;;10357726;28;20037;-72
2023/10/13 21:12:33;;;;;;;7.22;2.40;;;;;;;;;;10356521;28;20049;-71
2023/10/13 21:17:35;;;;;;;4.82;2.63;;;;;;;;;;10358849;28;20066;-72
2023/10/13 21:22:39;;;;;;;4.57;2.10;;;;;;;;;;10357012;28;20566;-72
2023/10/13 21:27:43;;;;;;;6.38;2.40;;;;;;;;;;10357091;28;20042;-72
2023/10/13 21:32:48;;;;;;;7.18;2.17;;;;;;;;;;10355133;28;20241;-72
2023/10/13 21:37:51;;;;;;;6.72;2.38;;;;;;;;;;10355917;28;20056;-72
2023/10/13 21:42:56;;;;;;;7.13;2.50;;;;;;;;;;10353788;28;20053;-72
2023/10/13 21:47:59;;;;;;;3.38;1.63;;;;;;;;;;10354237;28;20116;-71
2023/10/13 21:53:02;;;;;;;2.78;1.27;;;;;;;;;;10365192;28;20125;-71
2023/10/13 21:58:06;;;;;;;11.77;2.80;;;;;;;;;;10356191;28;20379;-71
2023/10/13 22:03:12;;;;;;;6.72;2.85;;;;;;;;;;10356120;28;20041;-71
2023/10/13 22:08:15;;;;;;;7.78;2.50;;;;;;;;;;10355963;28;20141;-71
2023/10/13 22:13:18;;;;;;;7.37;3.00;;;;;;;;;;10355016;28;20360;-73
2023/10/13 22:18:21;;;;;;;8.07;2.50;;;;;;;;;;10360780;28;20054;-72
2023/10/13 22:23:24;;;;;;;7.20;2.10;;;;;;;;;;10357498;28;20120;-72
2023/10/13 22:28:29;;;;;;;10.00;3.85;;;;;;;;;;10354378;28;20046;-74
2023/10/13 22:33:33;;;;;;;7.10;2.63;;;;;;;;;;10355444;28;20089;-70
2023/10/13 22:38:36;;;;;;;8.88;2.92;;;;;;;;;;10362599;28;20052;-71
2023/10/13 22:43:40;;;;;;;6.00;2.55;;;;;;;;;;10365607;28;20053;-72
2023/10/13 22:48:43;;;;;;;10.10;2.45;;;;;;;;;;10361581;28;20046;-73
2023/10/13 22:53:46;;;;;;;8.52;2.33;;;;;;;;;;10357528;28;20517;-72
2023/10/13 22:58:50;;;;;;;5.03;2.30;;;;;;;;;;10358814;28;20450;-70
2023/10/13 23:03:56;;;;;;;7.93;1.90;;;;;;;;;;10356085;28;20353;-73
2023/10/13 23:09:10;;;;;;;6.13;2.75;;;;;;;;;;10361462;28;20065;-70
2023/10/13 23:14:14;;;;;;;6.90;2.65;;;;;;;;;;10361033;28;20120;-71
2023/10/13 23:19:18;;;;;;;6.15;2.10;;;;;;;;;;10361783;28;20049;-71
2023/10/13 23:24:23;;;;;;;4.57;2.22;;;;;;;;;;10355440;28;20175;-71
2023/10/13 23:29:27;;;;;;;5.63;2.40;;;;;;;;;;10354020;28;20495;-70
2023/10/13 23:34:31;;;;;;;5.63;2.30;;;;;;;;;;10359994;28;20085;-72
2023/10/13 23:39:33;;;;;;;;;;;;;;;;;;10360177;28;20345;-70
2023/10/13 23:44:38;;;;;;;8.48;2.95;;;;;;;;;;10358973;28;19929;-71
2023/10/13 23:49:40;;;;;;;5.93;2.33;;;;;;;;;;10364453;28;20498;-69
2023/10/13 23:54:43;;;;;;;6.80;2.07;;;;;;;;;;10359096;28;20163;-71
2023/10/13 23:59:54;;;;;;;5.93;2.47;;;;;;;;;;10360259;28;20766;-72
